sensor_id;sensor_type;location;lat;lon;timestamp;temperature;humidity
16635;DHT22;8431;52.458;9.998;2023-02-28T00:00:00;-2.10;99.90
16635;DHT22;8431;52.458;9.998;2023-02-28T00:02:27;-2.20;99.90
16635;DHT22;8431;52.458;9.998;2023-02-28T00:04:54;-2.20;99.90
16635;DHT22;8431;52.458;9.998;2023-02-28T00:07:28;-2.20;99.90
16635;DHT22;8431;52.458;9.998;2023-02-28T00:09:55;-2.20;99.90
16635;DHT22;8431;52.458;9.998;2023-02-28T00:12:22;-2.20;99.90
16635;DHT22;8431;52.458;9.998;2023-02-28T00:14:49;-2.10;99.90
16635;DHT22;8431;52.458;9.998;2023-02-28T00:17:16;-2.00;99.90
16635;DHT22;8431;52.458;9.998;2023-02-28T00:19:47;-1.90;99.90
16635;DHT22;8431;52.458;9.998;2023-02-28T00:22:14;-2.00;99.90
16635;DHT22;8431;52.458;9.998;2023-02-28T00:24:43;-2.10;99.90
16635;DHT22;8431;52.458;9.998;2023-02-28T00:27:10;-2.10;99.90
16635;DHT22;8431;52.458;9.998;2023-02-28T00:29:38;-2.10;99.90
16635;DHT22;8431;52.458;9.998;2023-02-28T00:32:06;-2.20;99.90
16635;DHT22;8431;52.458;9.998;2023-02-28T00:34:33;-2.20;99.90
16635;DHT22;8431;52.458;9.998;2023-02-28T00:37:03;-2.30;99.90
16635;DHT22;8431;52.458;9.998;2023-02-28T00:39:31;-2.40;99.90
16635;DHT22;8431;52.458;9.998;2023-02-28T00:42:01;-2.40;99.90
16635;DHT22;8431;52.458;9.998;2023-02-28T00:44:28;-2.50;99.90
16635;DHT22;8431;52.458;9.998;2023-02-28T00:46:55;-2.40;99.90
16635;DHT22;8431;52.458;9.998;2023-02-28T00:49:22;-2.50;99.90
16635;DHT22;8431;52.458;9.998;2023-02-28T00:51:50;-2.50;99.90
16635;DHT22;8431;52.458;9.998;2023-02-28T00:54:17;-2.50;99.90
16635;DHT22;8431;52.458;9.998;2023-02-28T00:56:44;-2.50;99.90
16635;DHT22;8431;52.458;9.998;2023-02-28T00:59:14;-2.50;99.90
16635;DHT22;8431;52.458;9.998;2023-02-28T01:01:42;-2.50;99.90
16635;DHT22;8431;52.458;9.998;2023-02-28T01:04:09;-2.60;99.90
16635;DHT22;8431;52.458;9.998;2023-02-28T01:06:36;-2.60;99.90
16635;DHT22;8431;52.458;9.998;2023-02-28T01:09:04;-2.60;99.90
16635;DHT22;8431;52.458;9.998;2023-02-28T01:11:32;-2.70;99.90
16635;DHT22;8431;52.458;9.998;2023-02-28T01:13:59;-2.70;99.90
16635;DHT22;8431;52.458;9.998;2023-02-28T01:16:28;-2.70;99.90
16635;DHT22;8431;52.458;9.998;2023-02-28T01:18:55;-2.70;99.90
16635;DHT22;8431;52.458;9.998;2023-02-28T01:21:23;-2.70;99.90
16635;DHT22;8431;52.458;9.998;2023-02-28T01:23:50;-2.80;99.90
16635;DHT22;8431;52.458;9.998;2023-02-28T01:26:19;-2.80;99.90
16635;DHT22;8431;52.458;9.998;2023-02-28T01:28:47;-2.90;99.90
16635;DHT22;8431;52.458;9.998;2023-02-28T01:31:14;-3.00;99.90
16635;DHT22;8431;52.458;9.998;2023-02-28T01:33:44;-3.00;99.90
16635;DHT22;8431;52.458;9.998;2023-02-28T01:36:13;-3.00;99.90
16635;DHT22;8431;52.458;9.998;2023-02-28T01:38:41;-3.00;99.90
16635;DHT22;8431;52.458;9.998;2023-02-28T01:41:16;-3.10;99.90
16635;DHT22;8431;52.458;9.998;2023-02-28T01:43:58;-3.10;99.90
16635;DHT22;8431;52.458;9.998;2023-02-28T01:46:29;-3.10;99.90
16635;DHT22;8431;52.458;9.998;2023-02-28T01:49:02;-3.20;99.90
16635;DHT22;8431;52.458;9.998;2023-02-28T01:51:34;-3.20;99.90
16635;DHT22;8431;52.458;9.998;2023-02-28T01:54:05;-3.20;99.90
16635;DHT22;8431;52.458;9.998;2023-02-28T01:56:41;-3.10;99.90
16635;DHT22;8431;52.458;9.998;2023-02-28T01:59:13;-3.00;99.90
16635;DHT22;8431;52.458;9.998;2023-02-28T02:01:41;-3.10;99.90
16635;DHT22;8431;52.458;9.998;2023-02-28T02:04:09;-3.10;99.90
16635;DHT22;8431;52.458;9.998;2023-02-28T02:06:39;-3.20;99.90
16635;DHT22;8431;52.458;9.998;2023-02-28T02:09:07;-3.30;99.90
16635;DHT22;8431;52.458;9.998;2023-02-28T02:11:34;-3.30;99.90
16635;DHT22;8431;52.458;9.998;2023-02-28T02:14:21;-3.20;99.90
16635;DHT22;8431;52.458;9.998;2023-02-28T02:16:59;-3.10;99.90
16635;DHT22;8431;52.458;9.998;2023-02-28T02:23:10;-3.20;99.90
16635;DHT22;8431;52.458;9.998;2023-02-28T02:25:53;-3.20;99.90
16635;DHT22;8431;52.458;9.998;2023-02-28T02:37:17;-3.40;99.90
16635;DHT22;8431;52.458;9.998;2023-02-28T02:39:51;-3.50;99.90
16635;DHT22;8431;52.458;9.998;2023-02-28T02:42:25;-3.50;99.90
16635;DHT22;8431;52.458;9.998;2023-02-28T02:44:59;-3.50;99.90
16635;DHT22;8431;52.458;9.998;2023-02-28T02:47:30;-3.30;99.90
16635;DHT22;8431;52.458;9.998;2023-02-28T02:50:02;-3.20;99.90
16635;DHT22;8431;52.458;9.998;2023-02-28T02:52:36;-3.20;99.90
16635;DHT22;8431;52.458;9.998;2023-02-28T02:55:05;-3.20;99.90
16635;DHT22;8431;52.458;9.998;2023-02-28T02:57:36;-3.20;99.90
16635;DHT22;8431;52.458;9.998;2023-02-28T03:00:06;-3.30;99.90
16635;DHT22;8431;52.458;9.998;2023-02-28T03:02:36;-3.50;99.90
16635;DHT22;8431;52.458;9.998;2023-02-28T03:05:11;-3.60;99.90
16635;DHT22;8431;52.458;9.998;2023-02-28T03:07:41;-3.70;99.90
16635;DHT22;8431;52.458;9.998;2023-02-28T03:10:30;-3.70;99.90
16635;DHT22;8431;52.458;9.998;2023-02-28T03:13:11;-3.80;99.90
16635;DHT22;8431;52.458;9.998;2023-02-28T03:15:50;-3.80;99.90
16635;DHT22;8431;52.458;9.998;2023-02-28T03:18:25;-3.70;99.90
16635;DHT22;8431;52.458;9.998;2023-02-28T03:21:03;-3.50;99.90
16635;DHT22;8431;52.458;9.998;2023-02-28T03:23:38;-3.40;99.90
16635;DHT22;8431;52.458;9.998;2023-02-28T03:26:12;-3.40;99.90
16635;DHT22;8431;52.458;9.998;2023-02-28T03:28:45;-3.30;99.90
16635;DHT22;8431;52.458;9.998;2023-02-28T03:31:19;-3.50;99.90
16635;DHT22;8431;52.458;9.998;2023-02-28T03:33:51;-3.60;99.90
16635;DHT22;8431;52.458;9.998;2023-02-28T03:36:25;-3.60;99.90
16635;DHT22;8431;52.458;9.998;2023-02-28T03:38:55;-3.50;99.90
16635;DHT22;8431;52.458;9.998;2023-02-28T03:41:31;-3.50;99.90
16635;DHT22;8431;52.458;9.998;2023-02-28T03:44:03;-3.60;99.90
16635;DHT22;8431;52.458;9.998;2023-02-28T03:46:33;-3.70;99.90
16635;DHT22;8431;52.458;9.998;2023-02-28T03:49:06;-3.70;99.90
16635;DHT22;8431;52.458;9.998;2023-02-28T03:51:36;-3.60;99.90
16635;DHT22;8431;52.458;9.998;2023-02-28T03:54:07;-3.60;99.90
16635;DHT22;8431;52.458;9.998;2023-02-28T03:56:39;-3.60;99.90
16635;DHT22;8431;52.458;9.998;2023-02-28T03:59:13;-3.50;99.90
16635;DHT22;8431;52.458;9.998;2023-02-28T04:01:43;-3.50;99.90
16635;DHT22;8431;52.458;9.998;2023-02-28T04:04:11;-3.40;99.90
16635;DHT22;8431;52.458;9.998;2023-02-28T04:06:40;-3.50;99.90
16635;DHT22;8431;52.458;9.998;2023-02-28T04:09:09;-3.50;99.90
16635;DHT22;8431;52.458;9.998;2023-02-28T04:11:38;-3.50;99.90
16635;DHT22;8431;52.458;9.998;2023-02-28T04:14:06;-3.50;99.90
16635;DHT22;8431;52.458;9.998;2023-02-28T04:16:35;-3.50;99.90
16635;DHT22;8431;52.458;9.998;2023-02-28T04:19:04;-3.50;99.90
16635;DHT22;8431;52.458;9.998;2023-02-28T04:21:33;-3.50;99.90
16635;DHT22;8431;52.458;9.998;2023-02-28T04:24:03;-3.60;99.90
16635;DHT22;8431;52.458;9.998;2023-02-28T04:26:30;-3.50;99.90
16635;DHT22;8431;52.458;9.998;2023-02-28T04:28:57;-3.60;99.90
16635;DHT22;8431;52.458;9.998;2023-02-28T04:31:24;-3.70;99.90
16635;DHT22;8431;52.458;9.998;2023-02-28T04:33:54;-3.70;99.90
16635;DHT22;8431;52.458;9.998;2023-02-28T04:36:22;-3.70;99.90
16635;DHT22;8431;52.458;9.998;2023-02-28T04:38:49;-3.80;99.90
16635;DHT22;8431;52.458;9.998;2023-02-28T04:41:19;-3.90;99.90
16635;DHT22;8431;52.458;9.998;2023-02-28T04:43:46;-3.90;99.90
16635;DHT22;8431;52.458;9.998;2023-02-28T04:46:13;-3.80;99.90
16635;DHT22;8431;52.458;9.998;2023-02-28T04:48:41;-3.90;99.90
16635;DHT22;8431;52.458;9.998;2023-02-28T04:51:11;-3.90;99.90
16635;DHT22;8431;52.458;9.998;2023-02-28T04:53:39;-3.90;99.90
16635;DHT22;8431;52.458;9.998;2023-02-28T04:56:07;-3.90;99.90
16635;DHT22;8431;52.458;9.998;2023-02-28T04:58:36;-3.90;99.90
16635;DHT22;8431;52.458;9.998;2023-02-28T05:01:04;-3.80;99.90
16635;DHT22;8431;52.458;9.998;2023-02-28T05:03:38;-3.90;99.90
16635;DHT22;8431;52.458;9.998;2023-02-28T05:06:06;-4.00;99.90
16635;DHT22;8431;52.458;9.998;2023-02-28T05:08:33;-4.10;99.90
16635;DHT22;8431;52.458;9.998;2023-02-28T05:11:00;-4.10;99.90
16635;DHT22;8431;52.458;9.998;2023-02-28T05:13:27;-4.10;99.90
16635;DHT22;8431;52.458;9.998;2023-02-28T05:15:56;-4.20;99.90
16635;DHT22;8431;52.458;9.998;2023-02-28T05:18:23;-4.20;99.90
16635;DHT22;8431;52.458;9.998;2023-02-28T05:20:50;-4.20;99.90
16635;DHT22;8431;52.458;9.998;2023-02-28T05:23:17;-4.20;99.90
16635;DHT22;8431;52.458;9.998;2023-02-28T05:25:46;-4.20;99.90
16635;DHT22;8431;52.458;9.998;2023-02-28T05:28:13;-4.20;99.90
16635;DHT22;8431;52.458;9.998;2023-02-28T05:30:40;-4.10;99.90
16635;DHT22;8431;52.458;9.998;2023-02-28T05:33:11;-4.00;99.90
16635;DHT22;8431;52.458;9.998;2023-02-28T05:35:39;-3.90;99.90
16635;DHT22;8431;52.458;9.998;2023-02-28T05:38:11;-4.00;99.90
16635;DHT22;8431;52.458;9.998;2023-02-28T05:40:39;-4.10;99.90
16635;DHT22;8431;52.458;9.998;2023-02-28T05:43:07;-4.10;99.90
16635;DHT22;8431;52.458;9.998;2023-02-28T05:45:39;-4.20;99.90
16635;DHT22;8431;52.458;9.998;2023-02-28T05:48:10;-4.30;99.90
16635;DHT22;8431;52.458;9.998;2023-02-28T05:50:38;-4.30;99.90
16635;DHT22;8431;52.458;9.998;2023-02-28T05:53:09;-4.30;99.90
16635;DHT22;8431;52.458;9.998;2023-02-28T05:55:36;-4.30;99.90
16635;DHT22;8431;52.458;9.998;2023-02-28T05:58:03;-4.40;99.90
16635;DHT22;8431;52.458;9.998;2023-02-28T06:00:30;-4.50;99.90
16635;DHT22;8431;52.458;9.998;2023-02-28T06:02:57;-4.50;99.90
16635;DHT22;8431;52.458;9.998;2023-02-28T06:05:28;-4.50;99.90
16635;DHT22;8431;52.458;9.998;2023-02-28T06:07:55;-4.60;99.90
16635;DHT22;8431;52.458;9.998;2023-02-28T06:10:22;-4.70;99.90
16635;DHT22;8431;52.458;9.998;2023-02-28T06:12:49;-4.70;99.90
16635;DHT22;8431;52.458;9.998;2023-02-28T06:15:16;-4.70;99.90
16635;DHT22;8431;52.458;9.998;2023-02-28T06:17:44;-4.70;99.90
16635;DHT22;8431;52.458;9.998;2023-02-28T06:20:12;-4.70;99.90
16635;DHT22;8431;52.458;9.998;2023-02-28T06:22:40;-4.60;99.90
16635;DHT22;8431;52.458;9.998;2023-02-28T06:25:09;-4.60;99.90
16635;DHT22;8431;52.458;9.998;2023-02-28T06:27:37;-4.60;99.90
16635;DHT22;8431;52.458;9.998;2023-02-28T06:30:05;-4.60;99.90
16635;DHT22;8431;52.458;9.998;2023-02-28T06:32:32;-4.60;99.90
16635;DHT22;8431;52.458;9.998;2023-02-28T06:35:01;-4.60;99.90
16635;DHT22;8431;52.458;9.998;2023-02-28T06:37:30;-4.60;99.90
16635;DHT22;8431;52.458;9.998;2023-02-28T06:39:58;-4.60;99.90
16635;DHT22;8431;52.458;9.998;2023-02-28T06:42:25;-4.50;99.90
16635;DHT22;8431;52.458;9.998;2023-02-28T06:44:54;-4.40;99.90
16635;DHT22;8431;52.458;9.998;2023-02-28T06:47:21;-4.40;99.90
16635;DHT22;8431;52.458;9.998;2023-02-28T06:49:48;-4.30;99.90
16635;DHT22;8431;52.458;9.998;2023-02-28T06:52:16;-4.20;99.90
16635;DHT22;8431;52.458;9.998;2023-02-28T06:54:43;-4.10;99.90
16635;DHT22;8431;52.458;9.998;2023-02-28T06:57:11;-3.90;99.90
16635;DHT22;8431;52.458;9.998;2023-02-28T06:59:38;-3.80;99.90
16635;DHT22;8431;52.458;9.998;2023-02-28T07:02:05;-3.70;99.90
16635;DHT22;8431;52.458;9.998;2023-02-28T07:04:33;-3.80;99.90
16635;DHT22;8431;52.458;9.998;2023-02-28T07:07:00;-3.80;99.90
16635;DHT22;8431;52.458;9.998;2023-02-28T07:09:27;-3.90;99.90
16635;DHT22;8431;52.458;9.998;2023-02-28T07:11:55;-3.80;99.90
16635;DHT22;8431;52.458;9.998;2023-02-28T07:14:24;-3.80;99.90
16635;DHT22;8431;52.458;9.998;2023-02-28T07:16:51;-3.70;99.90
16635;DHT22;8431;52.458;9.998;2023-02-28T07:19:18;-3.60;99.90
16635;DHT22;8431;52.458;9.998;2023-02-28T07:21:45;-3.50;99.90
16635;DHT22;8431;52.458;9.998;2023-02-28T07:24:12;-3.40;99.90
16635;DHT22;8431;52.458;9.998;2023-02-28T07:26:41;-3.20;99.90
16635;DHT22;8431;52.458;9.998;2023-02-28T07:29:08;-3.00;99.90
16635;DHT22;8431;52.458;9.998;2023-02-28T07:31:36;-2.90;99.90
16635;DHT22;8431;52.458;9.998;2023-02-28T07:34:03;-2.90;99.90
16635;DHT22;8431;52.458;9.998;2023-02-28T07:36:30;-2.90;99.90
16635;DHT22;8431;52.458;9.998;2023-02-28T07:38:58;-2.80;99.90
16635;DHT22;8431;52.458;9.998;2023-02-28T07:41:25;-2.70;99.90
16635;DHT22;8431;52.458;9.998;2023-02-28T07:43:53;-2.60;99.90
16635;DHT22;8431;52.458;9.998;2023-02-28T07:46:21;-2.60;99.90
16635;DHT22;8431;52.458;9.998;2023-02-28T07:48:49;-2.50;99.90
16635;DHT22;8431;52.458;9.998;2023-02-28T07:51:16;-2.40;99.90
16635;DHT22;8431;52.458;9.998;2023-02-28T07:53:48;-2.30;99.90
16635;DHT22;8431;52.458;9.998;2023-02-28T07:56:22;-2.10;99.90
16635;DHT22;8431;52.458;9.998;2023-02-28T07:58:49;-2.00;99.90
16635;DHT22;8431;52.458;9.998;2023-02-28T08:01:16;-2.00;99.90
16635;DHT22;8431;52.458;9.998;2023-02-28T08:03:44;-1.90;99.90
16635;DHT22;8431;52.458;9.998;2023-02-28T08:06:18;-1.80;99.90
16635;DHT22;8431;52.458;9.998;2023-02-28T08:08:45;-1.70;99.90
16635;DHT22;8431;52.458;9.998;2023-02-28T08:11:12;-1.70;99.90
16635;DHT22;8431;52.458;9.998;2023-02-28T08:13:40;-1.70;99.90
16635;DHT22;8431;52.458;9.998;2023-02-28T08:16:08;-1.60;99.90
16635;DHT22;8431;52.458;9.998;2023-02-28T08:18:35;-1.40;99.90
16635;DHT22;8431;52.458;9.998;2023-02-28T08:21:16;-1.30;99.90
16635;DHT22;8431;52.458;9.998;2023-02-28T08:23:46;-1.20;99.90
16635;DHT22;8431;52.458;9.998;2023-02-28T08:26:14;-1.10;99.90
16635;DHT22;8431;52.458;9.998;2023-02-28T08:28:41;-1.00;99.90
16635;DHT22;8431;52.458;9.998;2023-02-28T08:31:11;-0.90;99.90
16635;DHT22;8431;52.458;9.998;2023-02-28T08:33:42;-0.80;99.90
16635;DHT22;8431;52.458;9.998;2023-02-28T08:36:10;-0.80;99.90
16635;DHT22;8431;52.458;9.998;2023-02-28T08:38:38;-0.70;99.90
16635;DHT22;8431;52.458;9.998;2023-02-28T08:41:09;-0.60;99.90
16635;DHT22;8431;52.458;9.998;2023-02-28T08:43:37;-0.60;99.90
16635;DHT22;8431;52.458;9.998;2023-02-28T08:46:05;-0.50;99.90
16635;DHT22;8431;52.458;9.998;2023-02-28T08:48:34;-0.40;99.90
16635;DHT22;8431;52.458;9.998;2023-02-28T08:51:05;-0.30;99.90
16635;DHT22;8431;52.458;9.998;2023-02-28T08:53:34;-0.10;99.90
16635;DHT22;8431;52.458;9.998;2023-02-28T08:56:03;-0.10;99.90
16635;DHT22;8431;52.458;9.998;2023-02-28T08:58:32;-0.10;99.90
16635;DHT22;8431;52.458;9.998;2023-02-28T09:01:07;0.00;99.90
16635;DHT22;8431;52.458;9.998;2023-02-28T09:03:36;0.20;99.90
16635;DHT22;8431;52.458;9.998;2023-02-28T09:06:03;0.20;99.90
16635;DHT22;8431;52.458;9.998;2023-02-28T09:08:31;0.30;99.90
16635;DHT22;8431;52.458;9.998;2023-02-28T09:10:58;0.50;99.90
16635;DHT22;8431;52.458;9.998;2023-02-28T09:13:26;0.60;99.90
16635;DHT22;8431;52.458;9.998;2023-02-28T09:15:57;0.70;99.90
16635;DHT22;8431;52.458;9.998;2023-02-28T09:18:35;0.70;99.90
16635;DHT22;8431;52.458;9.998;2023-02-28T09:21:03;0.80;99.90
16635;DHT22;8431;52.458;9.998;2023-02-28T09:23:30;0.80;99.90
16635;DHT22;8431;52.458;9.998;2023-02-28T09:25:57;0.80;99.90
16635;DHT22;8431;52.458;9.998;2023-02-28T09:28:24;0.80;99.90
16635;DHT22;8431;52.458;9.998;2023-02-28T09:30:54;1.00;99.90
16635;DHT22;8431;52.458;9.998;2023-02-28T09:33:22;1.10;99.90
16635;DHT22;8431;52.458;9.998;2023-02-28T09:35:51;1.20;99.90
16635;DHT22;8431;52.458;9.998;2023-02-28T09:38:23;1.30;99.90
16635;DHT22;8431;52.458;9.998;2023-02-28T09:40:51;1.20;99.90
16635;DHT22;8431;52.458;9.998;2023-02-28T09:43:22;1.30;99.90
16635;DHT22;8431;52.458;9.998;2023-02-28T09:45:52;1.40;99.90
16635;DHT22;8431;52.458;9.998;2023-02-28T09:48:28;1.30;99.90
16635;DHT22;8431;52.458;9.998;2023-02-28T09:51:02;1.60;99.90
16635;DHT22;8431;52.458;9.998;2023-02-28T09:53:31;1.70;99.90
16635;DHT22;8431;52.458;9.998;2023-02-28T09:56:02;1.80;99.90
16635;DHT22;8431;52.458;9.998;2023-02-28T09:58:35;1.80;99.90
16635;DHT22;8431;52.458;9.998;2023-02-28T10:01:07;2.00;99.90
16635;DHT22;8431;52.458;9.998;2023-02-28T10:03:39;2.00;99.90
16635;DHT22;8431;52.458;9.998;2023-02-28T10:06:12;2.00;99.90
16635;DHT22;8431;52.458;9.998;2023-02-28T10:08:43;2.10;99.90
16635;DHT22;8431;52.458;9.998;2023-02-28T10:11:16;2.00;99.90
16635;DHT22;8431;52.458;9.998;2023-02-28T10:13:53;2.20;99.90
16635;DHT22;8431;52.458;9.998;2023-02-28T10:16:25;2.20;99.90
16635;DHT22;8431;52.458;9.998;2023-02-28T10:18:58;2.40;99.90
16635;DHT22;8431;52.458;9.998;2023-02-28T10:21:29;2.60;99.90
16635;DHT22;8431;52.458;9.998;2023-02-28T10:24:03;2.70;99.90
16635;DHT22;8431;52.458;9.998;2023-02-28T10:26:31;2.70;99.90
16635;DHT22;8431;52.458;9.998;2023-02-28T10:28:59;2.70;99.90
16635;DHT22;8431;52.458;9.998;2023-02-28T10:31:26;2.80;99.90
16635;DHT22;8431;52.458;9.998;2023-02-28T10:33:56;2.80;99.90
16635;DHT22;8431;52.458;9.998;2023-02-28T10:36:23;2.90;99.90
16635;DHT22;8431;52.458;9.998;2023-02-28T10:38:51;3.00;99.90
16635;DHT22;8431;52.458;9.998;2023-02-28T10:41:28;2.90;99.90
16635;DHT22;8431;52.458;9.998;2023-02-28T10:44:14;3.10;99.90
16635;DHT22;8431;52.458;9.998;2023-02-28T10:46:42;3.00;99.90
16635;DHT22;8431;52.458;9.998;2023-02-28T10:49:15;3.10;99.90
16635;DHT22;8431;52.458;9.998;2023-02-28T10:51:45;3.20;99.90
16635;DHT22;8431;52.458;9.998;2023-02-28T10:54:19;3.10;99.90
16635;DHT22;8431;52.458;9.998;2023-02-28T10:57:06;3.00;99.90
16635;DHT22;8431;52.458;9.998;2023-02-28T10:59:35;3.00;99.90
16635;DHT22;8431;52.458;9.998;2023-02-28T11:02:08;3.10;99.90
16635;DHT22;8431;52.458;9.998;2023-02-28T11:04:55;3.10;99.90
16635;DHT22;8431;52.458;9.998;2023-02-28T11:07:23;3.20;99.90
16635;DHT22;8431;52.458;9.998;2023-02-28T11:09:51;3.20;99.90
16635;DHT22;8431;52.458;9.998;2023-02-28T11:12:24;3.20;99.90
16635;DHT22;8431;52.458;9.998;2023-02-28T11:14:55;3.30;99.90
16635;DHT22;8431;52.458;9.998;2023-02-28T11:17:24;3.30;99.90
16635;DHT22;8431;52.458;9.998;2023-02-28T11:19:56;3.40;99.90
16635;DHT22;8431;52.458;9.998;2023-02-28T11:22:27;3.60;99.90
16635;DHT22;8431;52.458;9.998;2023-02-28T11:25:01;3.70;99.90
16635;DHT22;8431;52.458;9.998;2023-02-28T11:27:44;3.60;99.90
16635;DHT22;8431;52.458;9.998;2023-02-28T11:30:25;3.70;99.90
16635;DHT22;8431;52.458;9.998;2023-02-28T11:32:52;4.00;99.90
16635;DHT22;8431;52.458;9.998;2023-02-28T11:35:24;4.20;99.90
16635;DHT22;8431;52.458;9.998;2023-02-28T11:37:52;4.10;99.90
16635;DHT22;8431;52.458;9.998;2023-02-28T11:40:24;3.90;99.90
16635;DHT22;8431;52.458;9.998;2023-02-28T11:43:02;3.80;99.90
16635;DHT22;8431;52.458;9.998;2023-02-28T11:45:44;3.70;99.90
16635;DHT22;8431;52.458;9.998;2023-02-28T11:48:19;3.60;99.90
16635;DHT22;8431;52.458;9.998;2023-02-28T11:50:58;3.40;99.90
16635;DHT22;8431;52.458;9.998;2023-02-28T11:53:41;3.30;99.90
16635;DHT22;8431;52.458;9.998;2023-02-28T11:56:18;3.40;99.90
16635;DHT22;8431;52.458;9.998;2023-02-28T11:58:55;3.40;99.90
16635;DHT22;8431;52.458;9.998;2023-02-28T12:01:51;3.30;99.90
16635;DHT22;8431;52.458;9.998;2023-02-28T12:04:27;3.20;99.90
16635;DHT22;8431;52.458;9.998;2023-02-28T12:07:12;3.10;99.90
16635;DHT22;8431;52.458;9.998;2023-02-28T12:09:53;3.10;99.90
16635;DHT22;8431;52.458;9.998;2023-02-28T12:12:32;3.00;99.90
16635;DHT22;8431;52.458;9.998;2023-02-28T12:15:29;3.10;99.90
16635;DHT22;8431;52.458;9.998;2023-02-28T12:18:10;3.20;99.90
16635;DHT22;8431;52.458;9.998;2023-02-28T12:20:45;3.40;99.90
16635;DHT22;8431;52.458;9.998;2023-02-28T12:23:34;3.80;99.90
16635;DHT22;8431;52.458;9.998;2023-02-28T12:26:11;4.00;99.90
16635;DHT22;8431;52.458;9.998;2023-02-28T12:28:43;4.50;99.90
16635;DHT22;8431;52.458;9.998;2023-02-28T12:31:18;4.60;99.90
16635;DHT22;8431;52.458;9.998;2023-02-28T12:33:51;4.70;99.90
16635;DHT22;8431;52.458;9.998;2023-02-28T12:36:20;4.70;99.90
16635;DHT22;8431;52.458;9.998;2023-02-28T12:38:54;4.60;99.90
16635;DHT22;8431;52.458;9.998;2023-02-28T12:41:27;4.60;99.90
16635;DHT22;8431;52.458;9.998;2023-02-28T12:44:00;4.60;99.90
16635;DHT22;8431;52.458;9.998;2023-02-28T12:46:32;4.70;99.90
16635;DHT22;8431;52.458;9.998;2023-02-28T12:49:06;4.60;99.90
16635;DHT22;8431;52.458;9.998;2023-02-28T12:51:35;4.60;99.90
16635;DHT22;8431;52.458;9.998;2023-02-28T12:54:13;4.40;99.90
16635;DHT22;8431;52.458;9.998;2023-02-28T12:56:45;4.40;99.90
16635;DHT22;8431;52.458;9.998;2023-02-28T12:59:20;4.40;99.90
16635;DHT22;8431;52.458;9.998;2023-02-28T13:02:02;4.50;99.90
16635;DHT22;8431;52.458;9.998;2023-02-28T13:05:00;4.60;99.90
16635;DHT22;8431;52.458;9.998;2023-02-28T13:07:43;4.40;99.90
16635;DHT22;8431;52.458;9.998;2023-02-28T13:10:17;4.40;99.90
16635;DHT22;8431;52.458;9.998;2023-02-28T13:12:49;4.50;99.90
16635;DHT22;8431;52.458;9.998;2023-02-28T13:15:19;4.60;99.90
16635;DHT22;8431;52.458;9.998;2023-02-28T13:17:51;4.60;99.90
16635;DHT22;8431;52.458;9.998;2023-02-28T13:20:20;4.80;99.90
16635;DHT22;8431;52.458;9.998;2023-02-28T13:22:52;4.80;99.90
16635;DHT22;8431;52.458;9.998;2023-02-28T13:25:54;4.60;99.90
16635;DHT22;8431;52.458;9.998;2023-02-28T13:31:30;4.30;99.90
16635;DHT22;8431;52.458;9.998;2023-02-28T13:34:13;4.30;99.90
16635;DHT22;8431;52.458;9.998;2023-02-28T13:36:41;4.30;99.90
16635;DHT22;8431;52.458;9.998;2023-02-28T13:42:33;4.30;99.90
16635;DHT22;8431;52.458;9.998;2023-02-28T13:45:24;4.40;99.90
16635;DHT22;8431;52.458;9.998;2023-02-28T13:47:53;4.50;99.90
16635;DHT22;8431;52.458;9.998;2023-02-28T13:50:23;4.40;99.90
16635;DHT22;8431;52.458;9.998;2023-02-28T13:55:59;4.40;99.90
16635;DHT22;8431;52.458;9.998;2023-02-28T13:58:45;4.50;99.90
16635;DHT22;8431;52.458;9.998;2023-02-28T14:01:32;4.40;99.90
16635;DHT22;8431;52.458;9.998;2023-02-28T14:07:18;4.40;99.90
16635;DHT22;8431;52.458;9.998;2023-02-28T14:09:55;4.50;99.90
16635;DHT22;8431;52.458;9.998;2023-02-28T14:12:52;4.50;99.90
16635;DHT22;8431;52.458;9.998;2023-02-28T14:15:56;4.50;99.90
16635;DHT22;8431;52.458;9.998;2023-02-28T14:18:27;4.50;99.90
16635;DHT22;8431;52.458;9.998;2023-02-28T14:21:21;4.50;99.90
16635;DHT22;8431;52.458;9.998;2023-02-28T14:24:55;4.50;99.90
16635;DHT22;8431;52.458;9.998;2023-02-28T14:27:49;4.60;99.90
16635;DHT22;8431;52.458;9.998;2023-02-28T14:30:49;4.40;99.90
16635;DHT22;8431;52.458;9.998;2023-02-28T14:33:27;4.40;99.90
16635;DHT22;8431;52.458;9.998;2023-02-28T14:36:07;4.40;99.90
16635;DHT22;8431;52.458;9.998;2023-02-28T14:38:41;4.40;99.90
16635;DHT22;8431;52.458;9.998;2023-02-28T14:41:20;4.30;99.90
16635;DHT22;8431;52.458;9.998;2023-02-28T14:43:49;4.30;99.90
16635;DHT22;8431;52.458;9.998;2023-02-28T14:46:20;4.30;99.90
16635;DHT22;8431;52.458;9.998;2023-02-28T14:48:50;4.40;99.90
16635;DHT22;8431;52.458;9.998;2023-02-28T14:51:21;4.40;99.90
16635;DHT22;8431;52.458;9.998;2023-02-28T14:54:13;4.40;99.90
16635;DHT22;8431;52.458;9.998;2023-02-28T14:56:41;4.20;99.90
16635;DHT22;8431;52.458;9.998;2023-02-28T14:59:25;4.30;99.90
16635;DHT22;8431;52.458;9.998;2023-02-28T15:04:36;4.40;99.90
16635;DHT22;8431;52.458;9.998;2023-02-28T15:07:10;4.40;99.90
16635;DHT22;8431;52.458;9.998;2023-02-28T15:09:37;4.40;99.90
16635;DHT22;8431;52.458;9.998;2023-02-28T15:12:05;4.40;99.90
16635;DHT22;8431;52.458;9.998;2023-02-28T15:14:34;4.40;99.90
16635;DHT22;8431;52.458;9.998;2023-02-28T15:17:07;4.30;99.90
16635;DHT22;8431;52.458;9.998;2023-02-28T15:19:41;4.30;99.90
16635;DHT22;8431;52.458;9.998;2023-02-28T15:22:12;4.20;99.90
16635;DHT22;8431;52.458;9.998;2023-02-28T15:24:43;4.20;99.90
16635;DHT22;8431;52.458;9.998;2023-02-28T15:27:13;4.20;99.90
16635;DHT22;8431;52.458;9.998;2023-02-28T15:29:46;4.20;99.90
16635;DHT22;8431;52.458;9.998;2023-02-28T15:32:27;4.10;99.90
16635;DHT22;8431;52.458;9.998;2023-02-28T15:34:57;4.10;99.90
16635;DHT22;8431;52.458;9.998;2023-02-28T15:37:39;4.10;99.90
16635;DHT22;8431;52.458;9.998;2023-02-28T15:40:13;4.00;99.90
16635;DHT22;8431;52.458;9.998;2023-02-28T15:42:41;4.00;99.90
16635;DHT22;8431;52.458;9.998;2023-02-28T15:45:33;3.90;99.90
16635;DHT22;8431;52.458;9.998;2023-02-28T15:48:03;3.90;99.90
16635;DHT22;8431;52.458;9.998;2023-02-28T15:50:32;3.90;99.90
16635;DHT22;8431;52.458;9.998;2023-02-28T15:53:01;3.90;99.90
16635;DHT22;8431;52.458;9.998;2023-02-28T15:55:38;3.70;99.90
16635;DHT22;8431;52.458;9.998;2023-02-28T15:58:11;3.60;99.90
16635;DHT22;8431;52.458;9.998;2023-02-28T16:00:39;3.60;99.90
16635;DHT22;8431;52.458;9.998;2023-02-28T16:03:24;3.80;99.90
16635;DHT22;8431;52.458;9.998;2023-02-28T16:06:21;3.70;99.90
16635;DHT22;8431;52.458;9.998;2023-02-28T16:08:50;3.60;99.90
16635;DHT22;8431;52.458;9.998;2023-02-28T16:11:19;3.40;99.90
16635;DHT22;8431;52.458;9.998;2023-02-28T16:13:48;3.30;99.90
16635;DHT22;8431;52.458;9.998;2023-02-28T16:16:17;3.40;99.90
16635;DHT22;8431;52.458;9.998;2023-02-28T16:18:45;3.20;99.90
16635;DHT22;8431;52.458;9.998;2023-02-28T16:21:12;3.10;99.90
16635;DHT22;8431;52.458;9.998;2023-02-28T16:23:41;3.00;99.90
16635;DHT22;8431;52.458;9.998;2023-02-28T16:26:10;2.90;99.90
16635;DHT22;8431;52.458;9.998;2023-02-28T16:28:43;2.80;99.90
16635;DHT22;8431;52.458;9.998;2023-02-28T16:31:14;2.80;99.90
16635;DHT22;8431;52.458;9.998;2023-02-28T16:33:42;2.70;99.90
16635;DHT22;8431;52.458;9.998;2023-02-28T16:36:12;2.70;99.90
16635;DHT22;8431;52.458;9.998;2023-02-28T16:38:41;2.60;99.90
16635;DHT22;8431;52.458;9.998;2023-02-28T16:41:12;2.50;99.90
16635;DHT22;8431;52.458;9.998;2023-02-28T16:43:44;2.40;99.90
16635;DHT22;8431;52.458;9.998;2023-02-28T16:46:15;2.30;99.90
16635;DHT22;8431;52.458;9.998;2023-02-28T16:48:43;2.20;99.90